sensor_id;sensor_type;location;lat;lon;timestamp;P1;durP1;ratioP1;P2;durP2;ratioP2
58250;SDS011;51449;51.676;5.812;2023-12-04T00:00:26;12.57;;;6.03;;
58250;SDS011;51449;51.676;5.812;2023-12-04T00:02:48;22.00;;;7.80;;
58250;SDS011;51449;51.676;5.812;2023-12-04T00:05:10;17.10;;;6.83;;
58250;SDS011;51449;51.676;5.812;2023-12-04T00:07:32;14.33;;;6.73;;
58250;SDS011;51449;51.676;5.812;2023-12-04T00:09:54;18.40;;;8.13;;
58250;SDS011;51449;51.676;5.812;2023-12-04T00:12:16;16.40;;;7.37;;
58250;SDS011;51449;51.676;5.812;2023-12-04T00:14:38;16.77;;;6.53;;
58250;SDS011;51449;51.676;5.812;2023-12-04T00:16:59;14.73;;;7.77;;
58250;SDS011;51449;51.676;5.812;2023-12-04T00:19:21;18.90;;;6.67;;
58250;SDS011;51449;51.676;5.812;2023-12-04T00:21:43;18.47;;;7.70;;
58250;SDS011;51449;51.676;5.812;2023-12-04T00:24:05;17.17;;;7.73;;
58250;SDS011;51449;51.676;5.812;2023-12-04T00:26:27;16.13;;;7.07;;
58250;SDS011;51449;51.676;5.812;2023-12-04T00:28:51;13.48;;;6.00;;
58250;SDS011;51449;51.676;5.812;2023-12-04T00:31:13;21.80;;;7.67;;
58250;SDS011;51449;51.676;5.812;2023-12-04T00:33:35;14.47;;;6.80;;
58250;SDS011;51449;51.676;5.812;2023-12-04T00:35:57;14.17;;;7.40;;
58250;SDS011;51449;51.676;5.812;2023-12-04T00:38:19;16.43;;;7.57;;
58250;SDS011;51449;51.676;5.812;2023-12-04T00:40:41;16.47;;;7.80;;
58250;SDS011;51449;51.676;5.812;2023-12-04T00:43:03;14.43;;;7.60;;
58250;SDS011;51449;51.676;5.812;2023-12-04T00:45:25;18.57;;;7.53;;
58250;SDS011;51449;51.676;5.812;2023-12-04T00:47:47;15.80;;;7.10;;
58250;SDS011;51449;51.676;5.812;2023-12-04T00:50:10;14.73;;;6.67;;
58250;SDS011;51449;51.676;5.812;2023-12-04T00:52:33;18.67;;;7.78;;
58250;SDS011;51449;51.676;5.812;2023-12-04T00:54:55;21.17;;;7.03;;
58250;SDS011;51449;51.676;5.812;2023-12-04T00:57:17;18.40;;;6.80;;
58250;SDS011;51449;51.676;5.812;2023-12-04T00:59:39;12.83;;;7.03;;
58250;SDS011;51449;51.676;5.812;2023-12-04T01:02:00;14.40;;;6.93;;
58250;SDS011;51449;51.676;5.812;2023-12-04T01:04:22;13.20;;;6.03;;
58250;SDS011;51449;51.676;5.812;2023-12-04T01:06:44;13.30;;;6.00;;
58250;SDS011;51449;51.676;5.812;2023-12-04T01:09:06;10.33;;;5.27;;
58250;SDS011;51449;51.676;5.812;2023-12-04T01:11:28;14.17;;;6.00;;
58250;SDS011;51449;51.676;5.812;2023-12-04T01:13:50;16.80;;;6.50;;
58250;SDS011;51449;51.676;5.812;2023-12-04T01:16:12;15.83;;;6.57;;
58250;SDS011;51449;51.676;5.812;2023-12-04T01:18:35;13.47;;;6.50;;
58250;SDS011;51449;51.676;5.812;2023-12-04T01:20:57;13.93;;;7.57;;
58250;SDS011;51449;51.676;5.812;2023-12-04T01:23:18;14.07;;;5.50;;
58250;SDS011;51449;51.676;5.812;2023-12-04T01:25:40;15.50;;;7.10;;
58250;SDS011;51449;51.676;5.812;2023-12-04T01:28:02;10.47;;;5.20;;
58250;SDS011;51449;51.676;5.812;2023-12-04T01:30:24;17.80;;;7.03;;
58250;SDS011;51449;51.676;5.812;2023-12-04T01:32:46;14.70;;;6.80;;
58250;SDS011;51449;51.676;5.812;2023-12-04T01:35:08;14.40;;;6.57;;
58250;SDS011;51449;51.676;5.812;2023-12-04T01:37:30;17.90;;;6.90;;
58250;SDS011;51449;51.676;5.812;2023-12-04T01:39:51;15.60;;;7.27;;
58250;SDS011;51449;51.676;5.812;2023-12-04T01:42:13;15.03;;;6.97;;
58250;SDS011;51449;51.676;5.812;2023-12-04T01:44:35;17.77;;;7.17;;
58250;SDS011;51449;51.676;5.812;2023-12-04T01:46:57;11.90;;;5.77;;
58250;SDS011;51449;51.676;5.812;2023-12-04T01:49:19;13.50;;;6.80;;
58250;SDS011;51449;51.676;5.812;2023-12-04T01:51:41;15.03;;;6.13;;
58250;SDS011;51449;51.676;5.812;2023-12-04T01:54:05;10.63;;;5.18;;
58250;SDS011;51449;51.676;5.812;2023-12-04T01:56:28;10.53;;;5.13;;
58250;SDS011;51449;51.676;5.812;2023-12-04T01:58:52;15.85;;;7.30;;
58250;SDS011;51449;51.676;5.812;2023-12-04T02:01:14;13.27;;;6.73;;
58250;SDS011;51449;51.676;5.812;2023-12-04T02:03:36;12.20;;;5.43;;
58250;SDS011;51449;51.676;5.812;2023-12-04T02:06:01;18.23;;;7.30;;
58250;SDS011;51449;51.676;5.812;2023-12-04T02:08:26;17.57;;;7.43;;
58250;SDS011;51449;51.676;5.812;2023-12-04T02:10:48;17.37;;;6.77;;
58250;SDS011;51449;51.676;5.812;2023-12-04T02:13:10;16.20;;;7.97;;
58250;SDS011;51449;51.676;5.812;2023-12-04T02:15:32;13.53;;;5.50;;
58250;SDS011;51449;51.676;5.812;2023-12-04T02:17:54;12.87;;;5.40;;
58250;SDS011;51449;51.676;5.812;2023-12-04T02:20:16;12.13;;;5.73;;
58250;SDS011;51449;51.676;5.812;2023-12-04T02:22:38;15.00;;;5.93;;
58250;SDS011;51449;51.676;5.812;2023-12-04T02:25:00;12.57;;;6.53;;
58250;SDS011;51449;51.676;5.812;2023-12-04T02:27:23;14.80;;;6.47;;
58250;SDS011;51449;51.676;5.812;2023-12-04T02:29:56;13.50;;;6.00;;
58250;SDS011;51449;51.676;5.812;2023-12-04T02:32:21;11.07;;;5.13;;
58250;SDS011;51449;51.676;5.812;2023-12-04T02:34:46;18.03;;;6.87;;
58250;SDS011;51449;51.676;5.812;2023-12-04T02:37:10;13.63;;;7.37;;
58250;SDS011;51449;51.676;5.812;2023-12-04T02:39:36;17.03;;;6.13;;
58250;SDS011;51449;51.676;5.812;2023-12-04T02:41:58;10.87;;;5.27;;
58250;SDS011;51449;51.676;5.812;2023-12-04T02:44:20;14.73;;;6.40;;
58250;SDS011;51449;51.676;5.812;2023-12-04T02:46:42;15.50;;;6.43;;
58250;SDS011;51449;51.676;5.812;2023-12-04T02:49:04;13.27;;;6.90;;
58250;SDS011;51449;51.676;5.812;2023-12-04T02:51:26;12.07;;;5.90;;
58250;SDS011;51449;51.676;5.812;2023-12-04T02:53:48;13.63;;;5.33;;
58250;SDS011;51449;51.676;5.812;2023-12-04T02:56:10;11.17;;;5.90;;
58250;SDS011;51449;51.676;5.812;2023-12-04T02:58:32;10.40;;;4.53;;
58250;SDS011;51449;51.676;5.812;2023-12-04T03:00:55;13.23;;;6.30;;
58250;SDS011;51449;51.676;5.812;2023-12-04T03:03:17;12.23;;;6.03;;
58250;SDS011;51449;51.676;5.812;2023-12-04T03:05:39;12.53;;;6.40;;
58250;SDS011;51449;51.676;5.812;2023-12-04T03:08:00;13.03;;;6.43;;
58250;SDS011;51449;51.676;5.812;2023-12-04T03:10:22;11.63;;;5.60;;
58250;SDS011;51449;51.676;5.812;2023-12-04T03:12:44;13.40;;;5.17;;
58250;SDS011;51449;51.676;5.812;2023-12-04T03:15:06;13.93;;;6.07;;
58250;SDS011;51449;51.676;5.812;2023-12-04T03:17:28;13.87;;;6.27;;
58250;SDS011;51449;51.676;5.812;2023-12-04T03:19:51;12.07;;;5.97;;
58250;SDS011;51449;51.676;5.812;2023-12-04T03:22:13;11.00;;;4.90;;
58250;SDS011;51449;51.676;5.812;2023-12-04T03:24:35;17.47;;;6.80;;
58250;SDS011;51449;51.676;5.812;2023-12-04T03:26:56;12.20;;;4.90;;
58250;SDS011;51449;51.676;5.812;2023-12-04T03:29:18;12.60;;;6.27;;
58250;SDS011;51449;51.676;5.812;2023-12-04T03:31:40;19.57;;;5.53;;
58250;SDS011;51449;51.676;5.812;2023-12-04T03:34:02;10.90;;;5.10;;
58250;SDS011;51449;51.676;5.812;2023-12-04T03:36:24;12.33;;;4.77;;
58250;SDS011;51449;51.676;5.812;2023-12-04T03:38:46;12.70;;;5.33;;
58250;SDS011;51449;51.676;5.812;2023-12-04T03:41:17;11.10;;;5.63;;
58250;SDS011;51449;51.676;5.812;2023-12-04T03:43:39;12.63;;;7.27;;
58250;SDS011;51449;51.676;5.812;2023-12-04T03:46:00;10.07;;;5.37;;
58250;SDS011;51449;51.676;5.812;2023-12-04T03:48:22;7.77;;;5.33;;
58250;SDS011;51449;51.676;5.812;2023-12-04T03:50:44;12.27;;;5.03;;
58250;SDS011;51449;51.676;5.812;2023-12-04T03:53:06;8.63;;;4.60;;
58250;SDS011;51449;51.676;5.812;2023-12-04T03:55:27;11.23;;;5.67;;
58250;SDS011;51449;51.676;5.812;2023-12-04T03:57:49;11.90;;;5.93;;
58250;SDS011;51449;51.676;5.812;2023-12-04T04:00:11;8.80;;;4.93;;
58250;SDS011;51449;51.676;5.812;2023-12-04T04:02:34;11.43;;;5.50;;
58250;SDS011;51449;51.676;5.812;2023-12-04T04:04:55;10.77;;;5.03;;
58250;SDS011;51449;51.676;5.812;2023-12-04T04:07:17;11.30;;;5.17;;
58250;SDS011;51449;51.676;5.812;2023-12-04T04:09:40;8.33;;;4.00;;
58250;SDS011;51449;51.676;5.812;2023-12-04T04:12:02;8.27;;;4.80;;
58250;SDS011;51449;51.676;5.812;2023-12-04T04:14:24;9.30;;;4.17;;
58250;SDS011;51449;51.676;5.812;2023-12-04T04:16:46;9.60;;;5.17;;
58250;SDS011;51449;51.676;5.812;2023-12-04T04:19:07;8.73;;;4.53;;
58250;SDS011;51449;51.676;5.812;2023-12-04T04:21:31;8.63;;;4.75;;
58250;SDS011;51449;51.676;5.812;2023-12-04T04:23:53;13.33;;;5.67;;
58250;SDS011;51449;51.676;5.812;2023-12-04T04:26:15;12.67;;;5.93;;
58250;SDS011;51449;51.676;5.812;2023-12-04T04:28:36;9.50;;;5.10;;
58250;SDS011;51449;51.676;5.812;2023-12-04T04:30:58;10.53;;;5.87;;
58250;SDS011;51449;51.676;5.812;2023-12-04T04:33:20;8.10;;;4.57;;
58250;SDS011;51449;51.676;5.812;2023-12-04T04:35:42;9.00;;;4.90;;
58250;SDS011;51449;51.676;5.812;2023-12-04T04:38:04;9.47;;;4.97;;
58250;SDS011;51449;51.676;5.812;2023-12-04T04:40:25;13.57;;;5.97;;
58250;SDS011;51449;51.676;5.812;2023-12-04T04:42:48;9.53;;;4.27;;
58250;SDS011;51449;51.676;5.812;2023-12-04T04:45:09;11.53;;;5.40;;
58250;SDS011;51449;51.676;5.812;2023-12-04T04:47:31;10.90;;;5.50;;
58250;SDS011;51449;51.676;5.812;2023-12-04T04:49:53;11.03;;;5.37;;
58250;SDS011;51449;51.676;5.812;2023-12-04T04:52:15;10.20;;;4.77;;
58250;SDS011;51449;51.676;5.812;2023-12-04T04:54:36;10.03;;;4.87;;
58250;SDS011;51449;51.676;5.812;2023-12-04T04:56:58;8.77;;;4.57;;
58250;SDS011;51449;51.676;5.812;2023-12-04T04:59:20;8.40;;;4.37;;
58250;SDS011;51449;51.676;5.812;2023-12-04T05:01:42;9.50;;;4.17;;
58250;SDS011;51449;51.676;5.812;2023-12-04T05:04:04;9.97;;;5.60;;
58250;SDS011;51449;51.676;5.812;2023-12-04T05:06:26;5.17;;;4.07;;
58250;SDS011;51449;51.676;5.812;2023-12-04T05:08:48;11.73;;;6.63;;
58250;SDS011;51449;51.676;5.812;2023-12-04T05:11:16;10.23;;;4.80;;
58250;SDS011;51449;51.676;5.812;2023-12-04T05:13:38;9.03;;;3.97;;
58250;SDS011;51449;51.676;5.812;2023-12-04T05:16:00;10.83;;;5.30;;
58250;SDS011;51449;51.676;5.812;2023-12-04T05:18:21;4.73;;;2.60;;
58250;SDS011;51449;51.676;5.812;2023-12-04T05:20:43;9.50;;;5.30;;
58250;SDS011;51449;51.676;5.812;2023-12-04T05:23:05;9.60;;;5.33;;
58250;SDS011;51449;51.676;5.812;2023-12-04T05:25:27;7.83;;;4.80;;
58250;SDS011;51449;51.676;5.812;2023-12-04T05:27:57;9.10;;;4.97;;
58250;SDS011;51449;51.676;5.812;2023-12-04T05:30:19;8.23;;;4.47;;
58250;SDS011;51449;51.676;5.812;2023-12-04T05:32:41;6.87;;;3.70;;
58250;SDS011;51449;51.676;5.812;2023-12-04T05:35:03;8.20;;;4.10;;
58250;SDS011;51449;51.676;5.812;2023-12-04T05:37:25;8.53;;;4.33;;
58250;SDS011;51449;51.676;5.812;2023-12-04T05:39:47;7.97;;;4.43;;
58250;SDS011;51449;51.676;5.812;2023-12-04T05:42:08;9.03;;;4.47;;
58250;SDS011;51449;51.676;5.812;2023-12-04T05:44:30;9.53;;;4.67;;
58250;SDS011;51449;51.676;5.812;2023-12-04T05:46:53;6.87;;;4.17;;
58250;SDS011;51449;51.676;5.812;2023-12-04T05:49:15;8.03;;;4.20;;
58250;SDS011;51449;51.676;5.812;2023-12-04T05:51:36;6.67;;;4.57;;
58250;SDS011;51449;51.676;5.812;2023-12-04T05:53:58;8.70;;;4.93;;
58250;SDS011;51449;51.676;5.812;2023-12-04T05:56:20;7.73;;;3.50;;
58250;SDS011;51449;51.676;5.812;2023-12-04T05:58:41;12.30;;;4.87;;
58250;SDS011;51449;51.676;5.812;2023-12-04T06:01:03;8.13;;;4.53;;
58250;SDS011;51449;51.676;5.812;2023-12-04T06:03:27;8.45;;;4.35;;
58250;SDS011;51449;51.676;5.812;2023-12-04T06:05:49;9.20;;;4.40;;
58250;SDS011;51449;51.676;5.812;2023-12-04T06:08:13;8.77;;;4.57;;
58250;SDS011;51449;51.676;5.812;2023-12-04T06:10:35;8.03;;;4.73;;
58250;SDS011;51449;51.676;5.812;2023-12-04T06:12:56;9.77;;;4.10;;
58250;SDS011;51449;51.676;5.812;2023-12-04T06:15:18;6.30;;;3.67;;
58250;SDS011;51449;51.676;5.812;2023-12-04T06:17:40;9.30;;;5.03;;
58250;SDS011;51449;51.676;5.812;2023-12-04T06:20:02;7.80;;;3.97;;
58250;SDS011;51449;51.676;5.812;2023-12-04T06:22:24;6.27;;;3.97;;
58250;SDS011;51449;51.676;5.812;2023-12-04T06:24:46;11.57;;;5.07;;
58250;SDS011;51449;51.676;5.812;2023-12-04T06:27:09;6.93;;;4.27;;
58250;SDS011;51449;51.676;5.812;2023-12-04T06:29:38;10.63;;;5.27;;
58250;SDS011;51449;51.676;5.812;2023-12-04T06:32:00;5.53;;;3.93;;
58250;SDS011;51449;51.676;5.812;2023-12-04T06:34:23;5.53;;;2.87;;
58250;SDS011;51449;51.676;5.812;2023-12-04T06:36:45;8.90;;;4.60;;
58250;SDS011;51449;51.676;5.812;2023-12-04T06:39:09;5.37;;;3.93;;
58250;SDS011;51449;51.676;5.812;2023-12-04T06:41:33;4.33;;;2.87;;
58250;SDS011;51449;51.676;5.812;2023-12-04T06:43:55;8.50;;;4.43;;
58250;SDS011;51449;51.676;5.812;2023-12-04T06:46:17;7.50;;;4.47;;
58250;SDS011;51449;51.676;5.812;2023-12-04T06:48:45;5.80;;;4.57;;
58250;SDS011;51449;51.676;5.812;2023-12-04T06:51:09;7.40;;;4.45;;
58250;SDS011;51449;51.676;5.812;2023-12-04T06:53:31;6.57;;;3.77;;
58250;SDS011;51449;51.676;5.812;2023-12-04T06:55:53;6.77;;;4.70;;
58250;SDS011;51449;51.676;5.812;2023-12-04T06:58:14;7.23;;;4.30;;
58250;SDS011;51449;51.676;5.812;2023-12-04T07:00:36;7.50;;;3.90;;
58250;SDS011;51449;51.676;5.812;2023-12-04T07:02:58;6.60;;;3.80;;
58250;SDS011;51449;51.676;5.812;2023-12-04T07:05:20;9.60;;;4.70;;
58250;SDS011;51449;51.676;5.812;2023-12-04T07:07:42;7.60;;;4.13;;
58250;SDS011;51449;51.676;5.812;2023-12-04T07:10:04;7.17;;;3.30;;
58250;SDS011;51449;51.676;5.812;2023-12-04T07:12:27;7.23;;;3.23;;
58250;SDS011;51449;51.676;5.812;2023-12-04T07:14:48;4.80;;;2.87;;
58250;SDS011;51449;51.676;5.812;2023-12-04T07:17:10;4.87;;;3.83;;
58250;SDS011;51449;51.676;5.812;2023-12-04T07:19:33;5.70;;;3.37;;
58250;SDS011;51449;51.676;5.812;2023-12-04T07:21:55;9.33;;;3.33;;
58250;SDS011;51449;51.676;5.812;2023-12-04T07:24:16;7.10;;;3.53;;
58250;SDS011;51449;51.676;5.812;2023-12-04T07:26:38;6.83;;;4.33;;
58250;SDS011;51449;51.676;5.812;2023-12-04T07:29:00;6.67;;;3.63;;
58250;SDS011;51449;51.676;5.812;2023-12-04T07:31:23;8.50;;;3.20;;
58250;SDS011;51449;51.676;5.812;2023-12-04T07:33:44;10.23;;;4.50;;
58250;SDS011;51449;51.676;5.812;2023-12-04T07:36:06;10.67;;;3.67;;
58250;SDS011;51449;51.676;5.812;2023-12-04T07:38:28;8.37;;;4.33;;
58250;SDS011;51449;51.676;5.812;2023-12-04T09:51:00;13.73;;;7.53;;
58250;SDS011;51449;51.676;5.812;2023-12-04T09:53:24;11.73;;;6.18;;
58250;SDS011;51449;51.676;5.812;2023-12-04T09:55:53;10.87;;;5.87;;
58250;SDS011;51449;51.676;5.812;2023-12-04T09:58:20;12.43;;;6.17;;
58250;SDS011;51449;51.676;5.812;2023-12-04T10:00:43;13.60;;;6.57;;
58250;SDS011;51449;51.676;5.812;2023-12-04T10:03:06;13.13;;;5.63;;
58250;SDS011;51449;51.676;5.812;2023-12-04T10:05:28;13.90;;;6.70;;
58250;SDS011;51449;51.676;5.812;2023-12-04T10:07:50;13.57;;;5.83;;
58250;SDS011;51449;51.676;5.812;2023-12-04T10:10:12;11.17;;;4.77;;
58250;SDS011;51449;51.676;5.812;2023-12-04T10:12:35;11.23;;;5.40;;
58250;SDS011;51449;51.676;5.812;2023-12-04T10:17:32;13.93;;;6.63;;
58250;SDS011;51449;51.676;5.812;2023-12-04T10:22:34;12.10;;;5.10;;
58250;SDS011;51449;51.676;5.812;2023-12-04T10:24:56;11.83;;;6.00;;
58250;SDS011;51449;51.676;5.812;2023-12-04T10:27:17;13.33;;;6.33;;
58250;SDS011;51449;51.676;5.812;2023-12-04T10:29:46;14.73;;;7.07;;
58250;SDS011;51449;51.676;5.812;2023-12-04T10:32:10;19.77;;;8.30;;
58250;SDS011;51449;51.676;5.812;2023-12-04T10:34:32;14.27;;;7.00;;
58250;SDS011;51449;51.676;5.812;2023-12-04T10:36:55;11.53;;;5.10;;
58250;SDS011;51449;51.676;5.812;2023-12-04T10:39:19;14.23;;;6.63;;
58250;SDS011;51449;51.676;5.812;2023-12-04T10:41:42;16.67;;;7.07;;
58250;SDS011;51449;51.676;5.812;2023-12-04T10:44:05;15.03;;;8.30;;
58250;SDS011;51449;51.676;5.812;2023-12-04T10:46:31;12.57;;;6.43;;
58250;SDS011;51449;51.676;5.812;2023-12-04T10:48:57;11.97;;;6.30;;
58250;SDS011;51449;51.676;5.812;2023-12-04T10:51:21;11.20;;;5.50;;
58250;SDS011;51449;51.676;5.812;2023-12-04T10:53:45;16.17;;;6.53;;
58250;SDS011;51449;51.676;5.812;2023-12-04T10:56:07;14.67;;;6.77;;
58250;SDS011;51449;51.676;5.812;2023-12-04T10:58:32;10.77;;;5.93;;
58250;SDS011;51449;51.676;5.812;2023-12-04T11:01:00;14.20;;;6.63;;
58250;SDS011;51449;51.676;5.812;2023-12-04T11:03:34;10.83;;;4.70;;
58250;SDS011;51449;51.676;5.812;2023-12-04T11:06:05;10.43;;;5.70;;
58250;SDS011;51449;51.676;5.812;2023-12-04T11:08:32;12.43;;;6.07;;
58250;SDS011;51449;51.676;5.812;2023-12-04T11:11:04;11.37;;;6.20;;
58250;SDS011;51449;51.676;5.812;2023-12-04T11:13:30;9.73;;;5.27;;
58250;SDS011;51449;51.676;5.812;2023-12-04T11:15:59;11.17;;;5.60;;
58250;SDS011;51449;51.676;5.812;2023-12-04T11:18:27;13.80;;;5.03;;
58250;SDS011;51449;51.676;5.812;2023-12-04T11:21:08;8.52;;;5.53;;
58250;SDS011;51449;51.676;5.812;2023-12-04T11:23:33;11.27;;;6.43;;
58250;SDS011;51449;51.676;5.812;2023-12-04T11:25:56;13.57;;;5.63;;
58250;SDS011;51449;51.676;5.812;2023-12-04T11:28:19;10.40;;;6.00;;
58250;SDS011;51449;51.676;5.812;2023-12-04T11:30:42;11.43;;;5.63;;
58250;SDS011;51449;51.676;5.812;2023-12-04T11:33:05;12.60;;;6.28;;
58250;SDS011;51449;51.676;5.812;2023-12-04T11:35:27;8.53;;;4.73;;
58250;SDS011;51449;51.676;5.812;2023-12-04T11:37:49;12.30;;;5.43;;
58250;SDS011;51449;51.676;5.812;2023-12-04T11:40:14;12.60;;;6.37;;
58250;SDS011;51449;51.676;5.812;2023-12-04T11:42:37;11.83;;;6.43;;
58250;SDS011;51449;51.676;5.812;2023-12-04T11:45:00;10.93;;;5.30;;
58250;SDS011;51449;51.676;5.812;2023-12-04T11:47:22;10.13;;;5.00;;
58250;SDS011;51449;51.676;5.812;2023-12-04T11:49:44;9.60;;;5.80;;
58250;SDS011;51449;51.676;5.812;2023-12-04T11:52:06;13.07;;;5.40;;
58250;SDS011;51449;51.676;5.812;2023-12-04T11:54:28;9.50;;;5.80;;
58250;SDS011;51449;51.676;5.812;2023-12-04T11:59:34;8.90;;;5.57;;
58250;SDS011;51449;51.676;5.812;2023-12-04T12:01:59;13.57;;;7.00;;
58250;SDS011;51449;51.676;5.812;2023-12-04T12:04:21;11.90;;;5.80;;
58250;SDS011;51449;51.676;5.812;2023-12-04T12:06:44;8.03;;;5.20;;
58250;SDS011;51449;51.676;5.812;2023-12-04T12:09:06;10.03;;;5.97;;
58250;SDS011;51449;51.676;5.812;2023-12-04T12:11:29;16.63;;;6.37;;
58250;SDS011;51449;51.676;5.812;2023-12-04T12:13:54;11.60;;;6.03;;
58250;SDS011;51449;51.676;5.812;2023-12-04T12:16:17;8.87;;;6.10;;
58250;SDS011;51449;51.676;5.812;2023-12-04T12:18:41;10.38;;;5.05;;
58250;SDS011;51449;51.676;5.812;2023-12-04T12:21:03;14.60;;;6.07;;
58250;SDS011;51449;51.676;5.812;2023-12-04T12:23:26;10.60;;;5.97;;
58250;SDS011;51449;51.676;5.812;2023-12-04T12:25:49;13.77;;;6.33;;
58250;SDS011;51449;51.676;5.812;2023-12-04T12:28:12;8.87;;;5.83;;
58250;SDS011;51449;51.676;5.812;2023-12-04T12:30:34;11.33;;;6.10;;
58250;SDS011;51449;51.676;5.812;2023-12-04T12:32:56;11.53;;;5.63;;
58250;SDS011;51449;51.676;5.812;2023-12-04T12:35:18;10.13;;;5.87;;
58250;SDS011;51449;51.676;5.812;2023-12-04T12:37:39;9.47;;;5.27;;
58250;SDS011;51449;51.676;5.812;2023-12-04T12:40:03;13.47;;;6.57;;
58250;SDS011;51449;51.676;5.812;2023-12-04T12:44:52;10.27;;;5.67;;
58250;SDS011;51449;51.676;5.812;2023-12-04T12:47:14;8.77;;;4.83;;
58250;SDS011;51449;51.676;5.812;2023-12-04T12:49:37;8.60;;;5.27;;
58250;SDS011;51449;51.676;5.812;2023-12-04T12:52:05;11.13;;;5.07;;
58250;SDS011;51449;51.676;5.812;2023-12-04T12:54:30;8.73;;;4.40;;
58250;SDS011;51449;51.676;5.812;2023-12-04T12:56:54;10.40;;;5.47;;
58250;SDS011;51449;51.676;5.812;2023-12-04T12:59:16;8.80;;;5.10;;
58250;SDS011;51449;51.676;5.812;2023-12-04T13:01:39;8.80;;;5.07;;
58250;SDS011;51449;51.676;5.812;2023-12-04T13:04:01;8.77;;;5.77;;
58250;SDS011;51449;51.676;5.812;2023-12-04T13:06:25;8.27;;;4.17;;
58250;SDS011;51449;51.676;5.812;2023-12-04T13:08:50;8.90;;;5.05;;
58250;SDS011;51449;51.676;5.812;2023-12-04T13:11:11;11.37;;;4.97;;
58250;SDS011;51449;51.676;5.812;2023-12-04T13:13:33;10.00;;;5.40;;
58250;SDS011;51449;51.676;5.812;2023-12-04T13:15:55;11.00;;;5.83;;
58250;SDS011;51449;51.676;5.812;2023-12-04T13:18:18;9.07;;;5.20;;
58250;SDS011;51449;51.676;5.812;2023-12-04T13:20:39;11.80;;;6.07;;
58250;SDS011;51449;51.676;5.812;2023-12-04T13:23:04;11.20;;;5.60;;
58250;SDS011;51449;51.676;5.812;2023-12-04T13:25:27;10.60;;;5.00;;
58250;SDS011;51449;51.676;5.812;2023-12-04T13:27:51;9.20;;;4.55;;
58250;SDS011;51449;51.676;5.812;2023-12-04T13:30:13;10.57;;;5.67;;
58250;SDS011;51449;51.676;5.812;2023-12-04T13:32:35;10.97;;;5.40;;
58250;SDS011;51449;51.676;5.812;2023-12-04T13:34:58;12.63;;;5.60;;
58250;SDS011;51449;51.676;5.812;2023-12-04T13:37:19;7.33;;;4.30;;
58250;SDS011;51449;51.676;5.812;2023-12-04T13:39:41;10.07;;;5.20;;
58250;SDS011;51449;51.676;5.812;2023-12-04T13:42:10;10.40;;;6.00;;
58250;SDS011;51449;51.676;5.812;2023-12-04T13:44:50;11.97;;;5.63;;
58250;SDS011;51449;51.676;5.812;2023-12-04T13:47:13;9.97;;;4.73;;
58250;SDS011;51449;51.676;5.812;2023-12-04T13:49:36;8.70;;;4.90;;
58250;SDS011;51449;51.676;5.812;2023-12-04T13:51:57;8.33;;;5.57;;
58250;SDS011;51449;51.676;5.812;2023-12-04T13:54:20;8.97;;;5.43;;
58250;SDS011;51449;51.676;5.812;2023-12-04T13:56:48;8.20;;;4.90;;
58250;SDS011;51449;51.676;5.812;2023-12-04T13:59:17;11.17;;;4.80;;
58250;SDS011;51449;51.676;5.812;2023-12-04T14:01:41;10.57;;;5.32;;
58250;SDS011;51449;51.676;5.812;2023-12-04T14:04:03;12.00;;;5.37;;
58250;SDS011;51449;51.676;5.812;2023-12-04T14:06:26;6.97;;;4.80;;
58250;SDS011;51449;51.676;5.812;2023-12-04T14:08:49;8.87;;;5.37;;
58250;SDS011;51449;51.676;5.812;2023-12-04T14:11:11;11.03;;;5.13;;
58250;SDS011;51449;51.676;5.812;2023-12-04T14:13:36;9.57;;;5.27;;
58250;SDS011;51449;51.676;5.812;2023-12-04T14:16:00;9.40;;;4.93;;
58250;SDS011;51449;51.676;5.812;2023-12-04T14:18:25;12.27;;;6.13;;
58250;SDS011;51449;51.676;5.812;2023-12-04T14:20:47;10.93;;;5.73;;
58250;SDS011;51449;51.676;5.812;2023-12-04T14:23:09;11.57;;;6.20;;
58250;SDS011;51449;51.676;5.812;2023-12-04T14:25:31;12.13;;;5.73;;
58250;SDS011;51449;51.676;5.812;2023-12-04T14:27:53;13.43;;;6.37;;
58250;SDS011;51449;51.676;5.812;2023-12-04T14:30:15;13.13;;;5.70;;
58250;SDS011;51449;51.676;5.812;2023-12-04T14:32:37;7.37;;;5.17;;
58250;SDS011;51449;51.676;5.812;2023-12-04T14:35:09;9.47;;;4.77;;
58250;SDS011;51449;51.676;5.812;2023-12-04T14:37:32;11.60;;;5.67;;
58250;SDS011;51449;51.676;5.812;2023-12-04T14:39:55;9.53;;;4.40;;
58250;SDS011;51449;51.676;5.812;2023-12-04T14:42:17;12.40;;;6.17;;
58250;SDS011;51449;51.676;5.812;2023-12-04T14:44:39;9.30;;;4.70;;
58250;SDS011;51449;51.676;5.812;2023-12-04T14:47:01;8.67;;;4.90;;
58250;SDS011;51449;51.676;5.812;2023-12-04T14:49:22;8.13;;;4.27;;
58250;SDS011;51449;51.676;5.812;2023-12-04T14:51:44;8.63;;;5.13;;
58250;SDS011;51449;51.676;5.812;2023-12-04T14:54:09;12.83;;;6.07;;
58250;SDS011;51449;51.676;5.812;2023-12-04T14:56:54;7.97;;;4.70;;
58250;SDS011;51449;51.676;5.812;2023-12-04T14:59:35;7.80;;;4.67;;
58250;SDS011;51449;51.676;5.812;2023-12-04T15:02:05;9.77;;;5.07;;
58250;SDS011;51449;51.676;5.812;2023-12-04T15:04:53;7.87;;;5.13;;
58250;SDS011;51449;51.676;5.812;2023-12-04T15:07:30;9.70;;;4.87;;
58250;SDS011;51449;51.676;5.812;2023-12-04T15:09:55;12.10;;;4.80;;
58250;SDS011;51449;51.676;5.812;2023-12-04T15:12:26;7.93;;;4.47;;
58250;SDS011;51449;51.676;5.812;2023-12-04T15:15:10;6.53;;;4.40;;
58250;SDS011;51449;51.676;5.812;2023-12-04T15:18:02;10.80;;;4.97;;
58250;SDS011;51449;51.676;5.812;2023-12-04T15:20:42;8.07;;;3.87;;
58250;SDS011;51449;51.676;5.812;2023-12-04T15:23:06;8.20;;;4.53;;
58250;SDS011;51449;51.676;5.812;2023-12-04T15:25:27;12.07;;;5.47;;
58250;SDS011;51449;51.676;5.812;2023-12-04T15:27:49;14.17;;;7.20;;
58250;SDS011;51449;51.676;5.812;2023-12-04T15:30:11;9.83;;;5.20;;
58250;SDS011;51449;51.676;5.812;2023-12-04T15:32:34;10.20;;;4.90;;
58250;SDS011;51449;51.676;5.812;2023-12-04T15:34:56;9.53;;;4.73;;
58250;SDS011;51449;51.676;5.812;2023-12-04T15:37:19;6.53;;;4.38;;
58250;SDS011;51449;51.676;5.812;2023-12-04T15:39:41;9.43;;;5.07;;
58250;SDS011;51449;51.676;5.812;2023-12-04T15:42:03;13.17;;;5.17;;
58250;SDS011;51449;51.676;5.812;2023-12-04T15:44:28;10.17;;;5.07;;
58250;SDS011;51449;51.676;5.812;2023-12-04T15:46:49;6.63;;;3.67;;
58250;SDS011;51449;51.676;5.812;2023-12-04T15:49:11;9.33;;;5.00;;
58250;SDS011;51449;51.676;5.812;2023-12-04T15:51:35;8.63;;;5.55;;
58250;SDS011;51449;51.676;5.812;2023-12-04T15:53:57;8.50;;;4.77;;
58250;SDS011;51449;51.676;5.812;2023-12-04T15:56:18;9.97;;;5.77;;
58250;SDS011;51449;51.676;5.812;2023-12-04T15:58:42;8.77;;;4.93;;
58250;SDS011;51449;51.676;5.812;2023-12-04T16:01:03;10.60;;;5.83;;
58250;SDS011;51449;51.676;5.812;2023-12-04T16:03:27;6.82;;;3.78;;
58250;SDS011;51449;51.676;5.812;2023-12-04T16:05:50;7.80;;;5.07;;
58250;SDS011;51449;51.676;5.812;2023-12-04T16:08:11;7.23;;;4.50;;
58250;SDS011;51449;51.676;5.812;2023-12-04T16:10:33;6.37;;;4.47;;
58250;SDS011;51449;51.676;5.812;2023-12-04T16:12:57;15.82;;;6.63;;
58250;SDS011;51449;51.676;5.812;2023-12-04T16:15:20;8.10;;;4.73;;
58250;SDS011;51449;51.676;5.812;2023-12-04T16:17:42;6.93;;;5.47;;
58250;SDS011;51449;51.676;5.812;2023-12-04T16:20:04;10.30;;;5.40;;
58250;SDS011;51449;51.676;5.812;2023-12-04T16:22:32;9.13;;;5.50;;
58250;SDS011;51449;51.676;5.812;2023-12-04T16:24:54;11.43;;;5.23;;
58250;SDS011;51449;51.676;5.812;2023-12-04T16:27:16;12.97;;;6.13;;
58250;SDS011;51449;51.676;5.812;2023-12-04T16:29:38;10.43;;;5.63;;
58250;SDS011;51449;51.676;5.812;2023-12-04T16:32:00;7.87;;;5.30;;
58250;SDS011;51449;51.676;5.812;2023-12-04T16:34:21;10.93;;;5.93;;
58250;SDS011;51449;51.676;5.812;2023-12-04T16:36:43;12.37;;;6.13;;